createdAt,value
2023-02-14T00:01:45.305Z,100798.98
2023-02-14T00:04:14.499Z,100797.07
2023-02-14T00:06:42.886Z,100794.42
2023-02-14T00:09:12.716Z,100793.20
2023-02-14T00:11:41.705Z,100789.84
2023-02-14T00:27:06.476Z,100781.78
2023-02-14T00:29:34.324Z,100772.27
2023-02-14T00:32:01.939Z,100776.52
2023-02-14T00:34:29.316Z,100766.31
2023-02-14T00:36:59.983Z,100767.75
2023-02-14T00:39:26.801Z,100771.98
2023-02-14T00:41:53.960Z,100757.73
2023-02-14T00:44:21.009Z,100752.48
2023-02-14T00:46:47.833Z,100745.52
2023-02-14T00:49:16.653Z,100746.95
2023-02-14T00:51:43.901Z,100761.35
2023-02-14T00:54:11.979Z,100749.48
2023-02-14T00:56:39.411Z,100740.54
2023-02-14T00:59:09.235Z,100762.40
2023-02-14T01:01:36.048Z,100744.52
2023-02-14T01:04:03.770Z,100742.72
2023-02-14T01:06:30.898Z,100737.36
2023-02-14T01:08:57.828Z,100734.40
2023-02-14T01:11:27.454Z,100732.66
2023-02-14T01:13:56.400Z,100732.86
2023-02-14T01:16:24.360Z,100744.95
2023-02-14T01:18:51.309Z,100732.05
2023-02-14T01:21:25.315Z,100731.16
2023-02-14T01:23:54.209Z,100721.08
2023-02-14T01:26:22.858Z,100726.01
2023-02-14T01:28:49.881Z,100721.45
2023-02-14T01:31:22.360Z,100717.45
2023-02-14T01:33:49.910Z,100712.59
2023-02-14T01:36:23.456Z,100720.83
2023-02-14T01:38:52.800Z,100721.82
2023-02-14T01:41:20.127Z,100720.20
2023-02-14T01:43:59.951Z,100721.84
2023-02-14T01:46:31.796Z,100706.11
2023-02-14T01:49:06.733Z,100693.23
2023-02-14T01:51:34.456Z,100677.23
2023-02-14T01:54:01.338Z,100674.02
2023-02-14T01:56:32.111Z,100680.19
2023-02-14T01:58:59.930Z,100676.79
2023-02-14T02:01:27.029Z,100675.23
2023-02-14T02:03:55.704Z,100663.77
2023-02-14T02:06:30.712Z,100665.55
2023-02-14T02:09:14.786Z,100673.41
2023-02-14T02:11:42.002Z,100682.69
2023-02-14T02:14:14.877Z,100676.89
2023-02-14T02:16:47.680Z,100655.27
2023-02-14T02:19:46.712Z,100656.36
2023-02-14T02:22:25.480Z,100668.27
2023-02-14T02:24:57.823Z,100659.14
2023-02-14T02:27:28.960Z,100650.63
2023-02-14T02:30:04.765Z,100655.88
2023-02-14T02:32:47.261Z,100651.41
2023-02-14T02:35:52.002Z,100645.98
2023-02-14T02:38:51.851Z,100657.79
2023-02-14T02:41:46.429Z,100645.15
2023-02-14T02:44:31.393Z,100633.05
2023-02-14T02:47:09.660Z,100640.54
2023-02-14T02:50:04.616Z,100641.54
2023-02-14T02:53:02.567Z,100646.02
2023-02-14T02:56:04.363Z,100639.56
2023-02-14T02:58:53.049Z,100643.96
2023-02-14T03:01:24.427Z,100643.73
2023-02-14T03:04:12.658Z,100650.04
2023-02-14T03:06:41.415Z,100648.89
2023-02-14T03:09:20.553Z,100657.20
2023-02-14T03:12:13.084Z,100657.77
2023-02-14T03:14:49.588Z,100666.92
2023-02-14T03:17:24.805Z,100673.52
2023-02-14T03:20:14.119Z,100686.52
2023-02-14T03:22:53.300Z,100688.51
2023-02-14T03:25:50.746Z,100695.31
2023-02-14T03:28:22.413Z,100696.19
2023-02-14T03:30:55.605Z,100696.98
2023-02-14T03:33:30.437Z,100694.71
2023-02-14T03:36:04.849Z,100696.84
2023-02-14T03:38:57.100Z,100709.66
2023-02-14T03:41:26.868Z,100707.77
2023-02-14T03:43:58.834Z,100714.71
2023-02-14T03:46:31.710Z,100709.01
2023-02-14T03:48:59.876Z,100715.77
2023-02-14T03:51:27.014Z,100709.20
2023-02-14T03:53:56.062Z,100714.90
2023-02-14T03:56:36.505Z,100713.80
2023-02-14T03:59:15.099Z,100713.77
2023-02-14T04:01:45.190Z,100720.06
2023-02-14T04:04:12.130Z,100715.84
2023-02-14T04:06:39.504Z,100713.38
2023-02-14T04:09:06.362Z,100714.44
2023-02-14T04:11:35.225Z,100716.11
2023-02-14T04:14:02.765Z,100716.50
2023-02-14T04:16:30.184Z,100709.77
2023-02-14T04:19:35.862Z,100717.20
2023-02-14T04:22:02.954Z,100712.48
2023-02-14T04:24:31.549Z,100709.78
2023-02-14T04:27:10.544Z,100710.36
2023-02-14T04:29:40.654Z,100711.19
2023-02-14T04:32:08.991Z,100712.50
2023-02-14T04:34:36.805Z,100720.27
2023-02-14T04:37:04.053Z,100720.92
2023-02-14T04:39:31.732Z,100723.86
2023-02-14T04:41:58.815Z,100727.33
2023-02-14T04:44:25.689Z,100729.77
2023-02-14T04:46:52.658Z,100735.33
2023-02-14T04:49:19.557Z,100741.25
2023-02-14T04:51:46.604Z,100755.58
2023-02-14T04:54:15.587Z,100747.02
2023-02-14T04:56:42.557Z,100760.95
2023-02-14T04:59:09.616Z,100756.88
2023-02-14T05:01:38.620Z,100756.77
2023-02-14T05:04:10.145Z,100758.02
2023-02-14T05:06:37.069Z,100769.54
2023-02-14T05:09:06.109Z,100772.16
2023-02-14T05:11:35.386Z,100777.45
2023-02-14T05:14:02.637Z,100778.48
2023-02-14T05:16:31.798Z,100772.92
2023-02-14T05:18:59.339Z,100777.70
2023-02-14T05:21:28.297Z,100775.39
2023-02-14T05:23:55.606Z,100780.94
2023-02-14T05:26:22.518Z,100801.45
2023-02-14T05:28:49.573Z,100781.50
2023-02-14T05:31:16.675Z,100781.90
2023-02-14T05:33:43.764Z,100778.08
2023-02-14T05:36:10.789Z,100775.61
2023-02-14T05:38:37.802Z,100772.56
2023-02-14T05:41:04.979Z,100771.39
2023-02-14T05:43:31.989Z,100777.02
2023-02-14T05:46:01.305Z,100772.58
2023-02-14T05:48:28.511Z,100782.23
2023-02-14T05:50:55.506Z,100783.53
2023-02-14T05:53:23.300Z,100782.16
2023-02-14T05:55:50.451Z,100777.61
2023-02-14T05:58:18.049Z,100781.27
2023-02-14T06:00:44.860Z,100788.87
2023-02-14T06:03:11.992Z,100783.70
2023-02-14T06:05:41.878Z,100792.17
2023-02-14T06:08:09.022Z,100800.10
2023-02-14T06:10:36.449Z,100795.67
2023-02-14T06:13:08.500Z,100789.55
2023-02-14T06:15:37.369Z,100791.73
2023-02-14T06:18:04.845Z,100794.11
2023-02-14T06:20:33.031Z,100800.07
2023-02-14T06:23:00.089Z,100807.13
2023-02-14T06:25:27.442Z,100803.90
2023-02-14T06:27:57.820Z,100808.69
2023-02-14T06:30:25.223Z,100803.46
2023-02-14T06:32:52.827Z,100800.73
2023-02-14T06:35:19.625Z,100805.59
2023-02-14T06:37:46.872Z,100813.39
2023-02-14T06:40:13.843Z,100810.80
2023-02-14T06:42:41.592Z,100810.55
2023-02-14T06:45:09.128Z,100807.66
2023-02-14T06:47:36.278Z,100808.84
2023-02-14T06:50:04.717Z,100812.59
2023-02-14T06:52:33.006Z,100807.86
2023-02-14T06:55:00.102Z,100807.17
2023-02-14T06:57:27.111Z,100806.44
2023-02-14T06:59:53.951Z,100809.21
2023-02-14T07:02:23.547Z,100805.52
2023-02-14T07:04:51.717Z,100810.75
2023-02-14T07:07:18.725Z,100803.84
2023-02-14T07:09:48.311Z,100801.66
2023-02-14T07:12:15.484Z,100808.92
2023-02-14T07:14:44.729Z,100803.30
2023-02-14T07:17:12.017Z,100795.42
2023-02-14T07:19:39.083Z,100808.39
2023-02-14T07:22:06.146Z,100811.68
2023-02-14T07:24:33.474Z,100814.13
2023-02-14T07:27:01.571Z,100808.04
2023-02-14T07:29:28.577Z,100813.11
2023-02-14T07:31:57.622Z,100825.16
2023-02-14T07:34:24.539Z,100821.38
2023-02-14T07:36:51.289Z,100821.95
2023-02-14T07:39:18.350Z,100816.88
2023-02-14T07:41:45.532Z,100804.91
2023-02-14T07:44:14.273Z,100798.98
2023-02-14T07:46:41.950Z,100800.25
2023-02-14T07:49:08.766Z,100795.98
2023-02-14T07:51:36.575Z,100804.54
2023-02-14T07:54:04.499Z,100806.29
2023-02-14T07:56:31.929Z,100799.25
2023-02-14T07:59:00.206Z,100802.59
2023-02-14T08:01:27.201Z,100800.25
2023-02-14T08:03:54.645Z,100791.95
2023-02-14T08:06:21.898Z,100798.11
2023-02-14T08:08:48.800Z,100795.75
2023-02-14T08:11:38.921Z,100798.42
2023-02-14T08:14:09.115Z,100807.64
2023-02-14T08:16:37.664Z,100805.39
2023-02-14T08:19:04.996Z,100808.49
2023-02-14T08:21:32.239Z,100805.70
2023-02-14T08:23:59.315Z,100810.26
2023-02-14T08:26:26.456Z,100809.67
2023-02-14T08:28:53.931Z,100802.65
2023-02-14T08:31:35.147Z,100803.66
2023-02-14T08:34:04.884Z,100805.44
2023-02-14T08:36:31.743Z,100809.55
2023-02-14T08:38:58.589Z,100807.54
2023-02-14T08:41:26.807Z,100809.20
2023-02-14T08:43:53.713Z,100805.34
2023-02-14T08:46:20.624Z,100811.41
2023-02-14T08:48:49.438Z,100811.16
2023-02-14T08:51:16.961Z,100809.48
2023-02-14T08:53:43.950Z,100804.90
2023-02-14T08:56:13.619Z,100813.60
2023-02-14T08:58:41.042Z,100827.71
2023-02-14T09:01:12.367Z,100826.54
2023-02-14T09:03:39.675Z,100821.58
2023-02-14T09:06:07.898Z,100817.46
2023-02-14T09:08:36.190Z,100817.51
2023-02-14T09:11:08.146Z,100825.42
2023-02-14T09:13:35.026Z,100830.22
2023-02-14T09:16:05.810Z,100832.30
2023-02-14T09:18:33.833Z,100832.19
2023-02-14T09:21:01.829Z,100830.84
2023-02-14T09:23:29.064Z,100835.13
2023-02-14T09:26:04.303Z,100831.54
2023-02-14T09:28:34.312Z,100835.34
2023-02-14T09:31:18.713Z,100829.03
2023-02-14T09:33:46.641Z,100827.60
2023-02-14T09:36:14.162Z,100827.89
2023-02-14T09:38:41.517Z,100829.22
2023-02-14T09:41:09.603Z,100824.64
2023-02-14T09:44:01.145Z,100823.30
2023-02-14T09:46:29.125Z,100819.00
2023-02-14T09:48:55.971Z,100819.30
2023-02-14T09:51:25.109Z,100808.08
2023-02-14T09:54:10.744Z,100821.59
2023-02-14T09:56:52.228Z,100812.96
2023-02-14T09:59:41.511Z,100813.31
2023-02-14T10:02:43.601Z,100821.88
2023-02-14T10:05:21.508Z,100821.07
2023-02-14T10:08:14.386Z,100811.13
2023-02-14T10:10:46.353Z,100807.95
2023-02-14T10:13:17.875Z,100802.60
2023-02-14T10:15:46.398Z,100801.23
2023-02-14T10:18:17.813Z,100802.20
2023-02-14T10:20:47.368Z,100798.09
2023-02-14T10:23:37.444Z,100807.40
2023-02-14T10:26:11.940Z,100805.89
2023-02-14T10:28:45.686Z,100797.95
2023-02-14T10:31:34.659Z,100794.86
2023-02-14T10:34:06.615Z,100795.52
2023-02-14T10:36:42.476Z,100793.33
2023-02-14T10:39:47.446Z,100795.51
2023-02-14T10:42:32.941Z,100787.86
2023-02-14T10:45:25.885Z,100785.83
2023-02-14T10:47:59.230Z,100798.11
2023-02-14T10:50:28.821Z,100788.17
2023-02-14T10:53:18.531Z,100785.63
2023-02-14T10:56:09.855Z,100787.15
2023-02-14T10:58:38.043Z,100790.13
2023-02-14T11:01:10.622Z,100790.95
2023-02-14T11:03:38.965Z,100803.71
2023-02-14T11:06:09.212Z,100800.25
2023-02-14T11:08:38.024Z,100789.86
2023-02-14T11:11:07.873Z,100792.13
2023-02-14T11:13:36.464Z,100793.18
2023-02-14T11:16:10.941Z,100783.94
2023-02-14T11:18:39.541Z,100777.70
2023-02-14T11:21:14.411Z,100784.63
2023-02-14T11:23:46.340Z,100778.75
2023-02-14T11:26:21.247Z,100772.70
2023-02-14T11:28:53.026Z,100774.55
2023-02-14T11:31:31.215Z,100778.57
2023-02-14T11:33:58.678Z,100774.27
2023-02-14T11:36:25.609Z,100786.69
2023-02-14T11:39:07.730Z,100778.12
2023-02-14T11:41:52.543Z,100772.83
2023-02-14T11:44:22.959Z,100769.19
2023-02-14T11:46:53.424Z,100773.05
2023-02-14T11:49:34.495Z,100771.91
2023-02-14T11:52:10.291Z,100786.19
2023-02-14T11:54:39.886Z,100785.86
2023-02-14T11:57:23.550Z,100797.51
2023-02-14T11:59:52.806Z,100792.59
2023-02-14T12:02:35.867Z,100782.90
2023-02-14T12:05:15.716Z,100777.54
2023-02-14T12:07:43.777Z,100792.48
2023-02-14T12:10:16.894Z,100787.57
2023-02-14T12:12:55.877Z,100792.38
2023-02-14T12:15:42.779Z,100785.05
2023-02-14T12:18:24.743Z,100783.33
2023-02-14T12:21:06.532Z,100792.51
2023-02-14T12:23:40.143Z,100786.14
2023-02-14T12:26:27.774Z,100791.18
2023-02-14T12:29:29.472Z,100782.57
2023-02-14T12:32:02.005Z,100788.52
2023-02-14T12:34:29.607Z,100786.49
2023-02-14T12:37:05.368Z,100796.46
2023-02-14T12:39:55.598Z,100797.20
2023-02-14T12:42:57.736Z,100799.35
2023-02-14T12:45:43.126Z,100796.35
2023-02-14T12:48:18.803Z,100807.16
2023-02-14T12:51:06.688Z,100806.29
2023-02-14T12:54:04.805Z,100806.87
2023-02-14T12:56:47.850Z,100804.76
2023-02-14T12:59:33.506Z,100808.68
2023-02-14T13:02:22.358Z,100815.20
2023-02-14T13:04:58.559Z,100819.48
2023-02-14T13:07:28.473Z,100824.01
2023-02-14T13:10:25.290Z,100821.17
2023-02-14T13:13:02.656Z,100832.77
2023-02-14T13:15:46.096Z,100828.64
2023-02-14T13:18:31.241Z,100831.95
2023-02-14T13:20:59.758Z,100832.80
2023-02-14T13:23:40.938Z,100841.57
2023-02-14T13:26:17.274Z,100837.55
2023-02-14T13:28:49.638Z,100844.86
2023-02-14T13:31:17.858Z,100852.94
2023-02-14T13:34:12.602Z,100847.30
2023-02-14T13:36:40.358Z,100852.48
2023-02-14T13:39:09.672Z,100850.08
2023-02-14T13:41:37.591Z,100858.51
2023-02-14T13:44:07.536Z,100852.70
2023-02-14T13:46:34.745Z,100858.08
2023-02-14T13:49:27.859Z,100862.89
2023-02-14T13:52:00.697Z,100856.86
2023-02-14T13:54:46.891Z,100869.98
2023-02-14T13:57:33.401Z,100858.98
2023-02-14T14:00:18.508Z,100869.55
2023-02-14T14:02:55.070Z,100872.23
2023-02-14T14:05:37.706Z,100878.95
2023-02-14T14:08:20.147Z,100881.06
2023-02-14T14:10:52.809Z,100887.38
2023-02-14T14:13:38.808Z,100882.42
2023-02-14T14:16:27.493Z,100886.77
2023-02-14T14:19:04.710Z,100889.12
2023-02-14T14:21:32.377Z,100893.52
2023-02-14T14:24:24.428Z,100891.98
2023-02-14T14:26:55.976Z,100899.64
2023-02-14T14:29:35.531Z,100901.06
2023-02-14T14:32:21.311Z,100911.11
2023-02-14T14:34:55.927Z,100915.30
2023-02-14T14:37:29.095Z,100917.13
2023-02-14T14:40:00.966Z,100916.72
2023-02-14T14:42:30.221Z,100920.23
2023-02-14T14:45:05.549Z,100921.48
2023-02-14T14:47:54.545Z,100933.69
2023-02-14T14:50:28.751Z,100926.91
2023-02-14T14:53:04.160Z,100931.83
2023-02-14T14:55:36.953Z,100936.02
2023-02-14T14:58:06.314Z,100928.39
2023-02-14T15:00:34.827Z,100939.45
2023-02-14T15:03:05.066Z,100940.75
2023-02-14T15:05:39.454Z,100947.98
2023-02-14T15:08:27.340Z,100953.86
2023-02-14T15:11:06.834Z,100956.70
2023-02-14T15:13:48.944Z,100966.86
2023-02-14T15:16:18.931Z,100966.86
2023-02-14T15:18:47.813Z,100976.58
2023-02-14T15:21:15.949Z,100983.97
2023-02-14T15:23:44.738Z,100985.95
2023-02-14T15:26:21.952Z,100988.49
2023-02-14T15:29:01.733Z,100988.47
2023-02-14T15:31:47.663Z,100988.04
2023-02-14T15:34:14.888Z,101003.09
2023-02-14T15:36:46.166Z,101009.22
2023-02-14T15:39:13.062Z,101011.98
2023-02-14T15:41:45.918Z,101021.61
2023-02-14T15:44:23.410Z,101026.13
2023-02-14T15:46:59.906Z,101027.52
2023-02-14T15:49:35.572Z,101030.37
2023-02-14T15:52:04.402Z,101030.93
2023-02-14T15:54:39.007Z,101032.73
2023-02-14T15:57:07.275Z,101031.17
2023-02-14T15:59:34.643Z,101034.80
2023-02-14T16:02:06.916Z,101037.37
2023-02-14T16:04:33.837Z,101038.31
2023-02-14T16:07:27.441Z,101042.66
2023-02-14T16:10:16.517Z,101043.80
2023-02-14T16:12:44.424Z,101044.58
2023-02-14T16:15:14.955Z,101049.54
2023-02-14T16:17:43.556Z,101053.84
2023-02-14T16:20:24.038Z,101058.60
2023-02-14T16:22:51.862Z,101060.08
2023-02-14T16:25:20.413Z,101062.14
2023-02-14T16:27:47.353Z,101072.11
2023-02-14T16:30:19.093Z,101066.00
2023-02-14T16:32:50.217Z,101075.77
2023-02-14T16:35:18.217Z,101073.29
2023-02-14T16:37:47.118Z,101079.61
2023-02-14T16:40:14.939Z,101086.73
2023-02-14T16:42:41.796Z,101089.89
2023-02-14T16:45:15.522Z,101098.94
2023-02-14T16:47:42.770Z,101102.08
2023-02-14T16:50:10.545Z,101097.95
2023-02-14T16:52:37.680Z,101102.55
2023-02-14T16:55:06.358Z,101105.48
2023-02-14T16:57:39.287Z,101109.52
2023-02-14T17:00:07.289Z,101115.66
2023-02-14T17:02:34.389Z,101121.11
2023-02-14T17:05:01.363Z,101126.66
2023-02-14T17:07:29.021Z,101129.98
2023-02-14T17:09:58.004Z,101126.65
2023-02-14T17:12:28.256Z,101130.69
2023-02-14T17:14:59.852Z,101130.11
2023-02-14T17:17:26.770Z,101130.52
2023-02-14T17:19:53.590Z,101138.38
2023-02-14T17:22:20.342Z,101142.89
2023-02-14T17:24:47.112Z,101150.83
2023-02-14T17:27:14.234Z,101152.05
2023-02-14T17:29:41.375Z,101154.89
2023-02-14T17:32:13.144Z,101154.09
2023-02-14T17:34:40.532Z,101158.85
2023-02-14T17:37:07.342Z,101165.38
2023-02-14T17:39:34.447Z,101169.58
2023-02-14T17:42:01.290Z,101174.90
2023-02-14T17:44:33.909Z,101180.17
2023-02-14T17:47:05.236Z,101202.16
2023-02-14T17:49:34.301Z,101190.48
2023-02-14T17:52:01.242Z,101199.47
2023-02-14T17:54:28.467Z,101204.85
2023-02-14T17:56:55.752Z,101198.90
2023-02-14T17:59:23.783Z,101202.55
2023-02-14T18:01:52.189Z,101197.16
2023-02-14T18:04:19.058Z,101203.94
2023-02-14T18:06:45.871Z,101202.27
2023-02-14T18:09:13.661Z,101199.56
2023-02-14T18:11:41.783Z,101203.55
2023-02-14T18:14:11.192Z,101203.71
2023-02-14T18:16:38.631Z,101202.09
2023-02-14T18:19:05.979Z,101206.57
2023-02-14T18:21:35.222Z,101204.58
2023-02-14T18:24:04.187Z,101208.83
2023-02-14T18:26:32.844Z,101209.13
2023-02-14T18:29:00.633Z,101209.22
2023-02-14T18:31:27.552Z,101209.66
2023-02-14T18:33:54.513Z,101210.36
2023-02-14T18:36:23.839Z,101209.68
2023-02-14T18:38:50.810Z,101215.69
2023-02-14T18:41:19.158Z,101214.33
2023-02-14T18:43:46.268Z,101217.30
2023-02-14T18:46:22.133Z,101222.66
2023-02-14T18:48:49.530Z,101222.35
2023-02-14T18:51:27.660Z,101223.73
2023-02-14T18:53:56.115Z,101226.33
2023-02-14T18:56:25.351Z,101228.86
2023-02-14T18:58:57.498Z,101225.94
2023-02-14T19:01:30.074Z,101231.72
2023-02-14T19:03:59.293Z,101234.97
2023-02-14T19:06:29.066Z,101235.30
2023-02-14T19:08:56.513Z,101243.02
2023-02-14T19:11:31.182Z,101240.63
2023-02-14T19:13:59.199Z,101244.70
2023-02-14T19:16:31.222Z,101248.85
2023-02-14T19:18:59.110Z,101249.48
2023-02-14T19:21:27.608Z,101251.16
2023-02-14T19:23:58.158Z,101248.89
2023-02-14T19:26:38.335Z,101251.04
2023-02-14T19:29:10.786Z,101252.59
2023-02-14T19:31:40.012Z,101253.08
2023-02-14T19:34:07.949Z,101253.23
2023-02-14T19:36:37.046Z,101256.73
2023-02-14T19:39:04.070Z,101259.65
2023-02-14T19:41:33.796Z,101260.83
2023-02-14T19:44:04.240Z,101263.23
2023-02-14T19:46:31.331Z,101264.79
2023-02-14T19:48:58.630Z,101265.11
2023-02-14T19:51:27.589Z,101269.38
2023-02-14T19:53:55.208Z,101264.80
2023-02-14T19:56:26.155Z,101268.43
2023-02-14T19:58:53.260Z,101267.45
2023-02-14T20:01:29.435Z,101258.63
2023-02-14T20:03:56.768Z,101265.73
2023-02-14T20:06:24.830Z,101267.02
2023-02-14T20:08:52.279Z,101266.14
2023-02-14T20:11:33.481Z,101264.59
2023-02-14T20:14:01.178Z,101272.98
2023-02-14T20:16:32.682Z,101274.01
2023-02-14T20:19:01.287Z,101272.94
2023-02-14T20:21:28.365Z,101274.48
2023-02-14T20:24:00.449Z,101272.05
2023-02-14T20:26:27.788Z,101276.52
2023-02-14T20:28:54.966Z,101279.13
2023-02-14T20:31:21.932Z,101279.52
2023-02-14T20:33:52.501Z,101279.71
2023-02-14T20:36:19.785Z,101284.70
2023-02-14T20:38:46.891Z,101289.70
2023-02-14T20:41:15.937Z,101287.20
2023-02-14T20:43:42.738Z,101291.49
2023-02-14T20:46:09.966Z,101298.23
2023-02-14T20:48:38.065Z,101298.11
2023-02-14T20:51:12.102Z,101296.96
2023-02-14T20:53:39.799Z,101299.90
2023-02-14T20:56:07.109Z,101300.69
2023-02-14T20:58:34.935Z,101300.10
2023-02-14T21:01:15.749Z,101303.99
2023-02-14T21:03:45.796Z,101313.55
2023-02-14T21:06:14.450Z,101315.01
2023-02-14T21:08:42.029Z,101312.26
2023-02-14T21:11:10.791Z,101316.70
2023-02-14T21:13:37.657Z,101313.00
2023-02-14T21:16:09.252Z,101312.02
2023-02-14T21:18:37.547Z,101312.34
2023-02-14T21:21:15.484Z,101318.89
2023-02-14T21:23:42.502Z,101321.66
2023-02-14T21:26:09.559Z,101322.89
2023-02-14T21:28:36.732Z,101321.27
2023-02-14T21:31:04.786Z,101316.79
2023-02-14T21:33:33.888Z,101324.83
2023-02-14T21:36:08.107Z,101321.20
2023-02-14T21:38:36.450Z,101325.68
2023-02-14T21:41:14.295Z,101324.95
2023-02-14T21:43:42.871Z,101326.66
2023-02-14T21:46:15.060Z,101329.84
2023-02-14T21:49:00.615Z,101328.41
2023-02-14T21:51:28.593Z,101333.47
2023-02-14T21:53:59.219Z,101331.63
2023-02-14T21:56:26.132Z,101332.77
2023-02-14T21:58:54.604Z,101342.48
2023-02-14T22:01:23.529Z,101342.45
2023-02-14T22:03:52.343Z,101343.80
2023-02-14T22:06:19.367Z,101344.02
2023-02-14T22:08:48.868Z,101344.92
2023-02-14T22:11:16.751Z,101342.80
2023-02-14T22:13:43.547Z,101340.34
2023-02-14T22:16:12.311Z,101340.95
2023-02-14T22:18:40.013Z,101346.45
2023-02-14T22:21:13.519Z,101343.88
2023-02-14T22:23:40.932Z,101343.45
2023-02-14T22:26:16.988Z,101343.13
2023-02-14T22:28:47.447Z,101341.65
2023-02-14T22:31:15.677Z,101340.14
2023-02-14T22:33:43.213Z,101346.32
2023-02-14T22:36:10.154Z,101346.64
2023-02-14T22:38:38.386Z,101346.42
2023-02-14T22:41:10.499Z,101344.14
2023-02-14T22:43:37.816Z,101342.58
2023-02-14T22:46:07.992Z,101345.64
2023-02-14T22:48:35.698Z,101340.11
2023-02-14T22:51:11.912Z,101342.63
2023-02-14T22:53:39.103Z,101338.38
2023-02-14T22:56:14.854Z,101339.05
2023-02-14T22:58:42.223Z,101339.16
2023-02-14T23:01:14.145Z,101341.77
2023-02-14T23:03:41.808Z,101347.27
2023-02-14T23:06:08.690Z,101351.05
2023-02-14T23:08:43.534Z,101346.91
2023-02-14T23:11:15.294Z,101349.59
2023-02-14T23:14:03.016Z,101347.77
2023-02-14T23:16:50.586Z,101349.21
2023-02-14T23:19:43.040Z,101352.27
2023-02-14T23:22:15.624Z,101350.73
2023-02-14T23:24:42.585Z,101353.33
2023-02-14T23:27:09.453Z,101361.86
2023-02-14T23:29:37.217Z,101360.10
2023-02-14T23:32:04.797Z,101361.27
2023-02-14T23:34:37.614Z,101361.95
2023-02-14T23:37:04.818Z,101361.83
2023-02-14T23:39:35.229Z,101365.61
2023-02-14T23:42:03.342Z,101367.77
2023-02-14T23:44:30.418Z,101369.77
2023-02-14T23:46:59.983Z,101373.52
2023-02-14T23:49:27.286Z,101373.67
2023-02-14T23:51:54.934Z,101378.07
2023-02-14T23:54:22.075Z,101385.73
2023-02-14T23:56:49.726Z,101385.59
2023-02-14T23:59:16.613Z,101385.96
